createdAt,value
2023-07-14T00:00:43.895Z,41.59
2023-07-14T00:06:05.725Z,41.67
2023-07-14T00:11:27.622Z,41.47
2023-07-14T00:16:49.742Z,41.41
2023-07-14T00:22:16.666Z,41.67
2023-07-14T00:27:38.748Z,41.50
2023-07-14T00:33:00.660Z,41.30
2023-07-14T00:38:23.102Z,41.52
2023-07-14T00:43:45.904Z,41.84
2023-07-14T00:49:15.168Z,41.82
2023-07-14T00:54:51.247Z,41.70
2023-07-14T01:00:25.567Z,41.74
2023-07-14T01:05:47.455Z,41.71
2023-07-14T01:11:09.481Z,41.66
2023-07-14T01:16:32.783Z,41.59
2023-07-14T01:22:06.346Z,41.53
2023-07-14T01:27:28.239Z,41.46
2023-07-14T01:32:52.471Z,41.72
2023-07-14T01:38:15.211Z,41.33
2023-07-14T01:43:37.725Z,42.03
2023-07-14T01:49:04.431Z,41.36
2023-07-14T01:54:52.698Z,41.62
2023-07-14T02:00:15.615Z,41.77
2023-07-14T02:05:39.575Z,41.71
2023-07-14T02:11:01.689Z,41.50
2023-07-14T02:16:25.363Z,41.90
2023-07-14T02:21:48.088Z,41.71
2023-07-14T02:27:12.908Z,41.75
2023-07-14T02:32:39.277Z,41.81
2023-07-14T02:38:04.859Z,41.59
2023-07-14T02:43:26.986Z,41.75
2023-07-14T02:48:51.721Z,41.69
2023-07-14T02:54:13.754Z,41.82
2023-07-14T02:59:35.669Z,41.99
2023-07-14T03:04:57.603Z,41.93
2023-07-14T03:10:19.660Z,41.85
2023-07-14T03:15:43.950Z,42.12
2023-07-14T03:21:06.743Z,42.10
2023-07-14T03:26:28.633Z,41.84
2023-07-14T03:31:51.024Z,41.83
2023-07-14T03:37:14.122Z,42.15
2023-07-14T03:42:36.119Z,42.13
2023-07-14T03:47:58.136Z,41.85
2023-07-14T03:53:20.045Z,42.17
2023-07-14T03:58:43.393Z,41.77
2023-07-14T04:04:05.528Z,41.66
2023-07-14T04:09:27.655Z,41.65
2023-07-14T04:14:49.483Z,41.69
2023-07-14T04:20:12.088Z,41.81
2023-07-14T04:25:36.279Z,41.92
2023-07-14T04:30:59.752Z,41.78
2023-07-14T04:36:21.635Z,41.84
2023-07-14T04:41:43.520Z,41.81
2023-07-14T04:47:05.564Z,41.98
2023-07-14T04:52:28.869Z,42.08
2023-07-14T04:57:50.714Z,41.89
2023-07-14T05:03:12.901Z,41.62
2023-07-14T05:08:34.871Z,41.95
2023-07-14T05:13:56.883Z,41.59
2023-07-14T05:19:18.847Z,41.90
2023-07-14T05:24:40.816Z,42.07
2023-07-14T05:30:03.554Z,41.94
2023-07-14T05:35:26.458Z,41.88
2023-07-14T05:40:58.401Z,41.92
2023-07-14T05:46:20.838Z,41.86
2023-07-14T05:51:42.734Z,41.68
2023-07-14T05:57:04.921Z,41.65
2023-07-14T06:02:27.184Z,41.92
2023-07-14T06:07:49.288Z,41.61
2023-07-14T06:13:11.421Z,41.77
2023-07-14T06:18:33.306Z,41.49
2023-07-14T06:23:55.206Z,41.60
2023-07-14T06:29:17.585Z,41.77
2023-07-14T06:34:39.524Z,41.22
2023-07-14T06:40:01.477Z,41.49
2023-07-14T06:45:23.553Z,41.50
2023-07-14T06:50:46.514Z,41.38
2023-07-14T06:56:09.073Z,41.38
2023-07-14T07:01:30.997Z,41.36
2023-07-14T07:06:54.584Z,41.37
2023-07-14T07:12:16.550Z,41.01
2023-07-14T07:17:40.176Z,41.29
2023-07-14T07:23:02.281Z,41.25
2023-07-14T07:28:24.852Z,41.18
2023-07-14T07:33:46.917Z,41.25
2023-07-14T07:39:09.040Z,41.32
2023-07-14T07:44:32.351Z,40.75
2023-07-14T07:49:54.477Z,41.11
2023-07-14T07:55:16.588Z,41.11
2023-07-14T08:00:38.575Z,41.02
2023-07-14T08:06:04.824Z,40.94
2023-07-14T08:11:26.767Z,40.55
2023-07-14T08:16:48.958Z,40.71
2023-07-14T08:22:10.856Z,40.72
2023-07-14T08:27:32.716Z,40.44
2023-07-14T08:32:54.774Z,40.41
2023-07-14T08:38:16.806Z,40.43
2023-07-14T08:43:51.018Z,40.29
2023-07-14T08:49:27.918Z,39.80
2023-07-14T08:54:59.024Z,40.17
2023-07-14T09:00:36.509Z,39.70
2023-07-14T09:06:06.636Z,39.99
2023-07-14T09:11:42.506Z,40.23
2023-07-14T09:17:17.654Z,40.04
2023-07-14T09:22:48.145Z,39.82
2023-07-14T09:28:41.189Z,40.09
2023-07-14T09:34:05.894Z,40.12
2023-07-14T09:39:38.483Z,40.22
2023-07-14T09:45:10.240Z,40.08
2023-07-14T09:50:36.752Z,39.87
2023-07-14T09:56:07.192Z,39.96
2023-07-14T10:01:32.932Z,39.94
2023-07-14T10:06:55.487Z,39.95
2023-07-14T10:12:17.952Z,40.09
2023-07-14T10:17:42.135Z,39.96
2023-07-14T10:23:04.117Z,40.16
2023-07-14T10:28:30.545Z,39.92
2023-07-14T10:33:55.424Z,40.05
2023-07-14T10:39:37.282Z,39.99
2023-07-14T10:45:00.123Z,40.13
2023-07-14T10:50:29.252Z,40.09
2023-07-14T10:55:56.290Z,39.79
2023-07-14T11:01:40.682Z,39.87
2023-07-14T11:07:04.296Z,40.34
2023-07-14T11:12:54.578Z,39.83
2023-07-14T11:18:19.280Z,39.78
2023-07-14T11:24:03.396Z,40.05
2023-07-14T11:29:28.115Z,39.88
2023-07-14T11:35:07.228Z,39.86
2023-07-14T11:40:38.001Z,40.04
2023-07-14T11:46:07.871Z,39.93
2023-07-14T11:51:53.610Z,39.63
2023-07-14T11:57:19.904Z,39.76
2023-07-14T12:02:50.188Z,39.75
2023-07-14T12:08:24.033Z,39.79
2023-07-14T12:13:52.639Z,39.47
2023-07-14T12:19:22.837Z,39.79
2023-07-14T12:24:50.446Z,39.53
2023-07-14T12:30:18.831Z,39.76
2023-07-14T12:35:40.890Z,39.89
2023-07-14T12:41:05.193Z,40.16
2023-07-14T12:46:37.962Z,39.99
2023-07-14T12:52:06.506Z,39.67
2023-07-14T12:57:31.926Z,40.03
2023-07-14T13:02:55.569Z,39.42
2023-07-14T13:08:21.675Z,39.46
2023-07-14T13:13:45.858Z,39.30
2023-07-14T13:19:28.490Z,39.41
2023-07-14T13:25:09.969Z,39.38
2023-07-14T13:30:33.445Z,39.04
2023-07-14T13:36:03.765Z,39.48
2023-07-14T13:41:29.146Z,39.12
2023-07-14T13:46:51.325Z,38.77
2023-07-14T13:52:23.017Z,38.83
2023-07-14T13:57:50.179Z,38.79
2023-07-14T14:03:13.421Z,38.36
2023-07-14T14:08:35.650Z,38.19
2023-07-14T14:13:57.753Z,37.66
2023-07-14T14:19:25.105Z,37.21
2023-07-14T14:24:47.709Z,36.80
2023-07-14T14:30:11.041Z,36.57
2023-07-14T14:35:36.153Z,36.63
2023-07-14T14:41:01.486Z,36.98
2023-07-14T14:46:24.587Z,37.08
2023-07-14T14:51:47.659Z,37.09
2023-07-14T14:57:16.531Z,37.09
2023-07-14T15:02:38.526Z,37.13
2023-07-14T15:08:00.849Z,37.11
2023-07-14T15:13:29.720Z,36.97
2023-07-14T15:18:51.635Z,37.49
2023-07-14T15:24:13.637Z,37.92
2023-07-14T15:29:35.600Z,38.09
2023-07-14T15:34:57.945Z,38.04
2023-07-14T15:40:23.166Z,38.25
2023-07-14T15:45:45.977Z,38.48
2023-07-14T15:51:26.509Z,38.62
2023-07-14T15:56:48.553Z,38.60
2023-07-14T16:02:15.076Z,38.46
2023-07-14T16:07:39.106Z,38.43
2023-07-14T16:13:02.054Z,38.31
2023-07-14T16:18:24.051Z,38.29
2023-07-14T16:23:46.287Z,37.88
2023-07-14T16:29:11.938Z,37.47
2023-07-14T16:34:33.855Z,37.00
2023-07-14T16:39:55.907Z,37.06
2023-07-14T16:45:23.393Z,37.11
2023-07-14T16:50:47.476Z,37.40
2023-07-14T16:56:13.291Z,37.63
2023-07-14T17:01:35.990Z,37.47
2023-07-14T17:06:57.924Z,37.60
2023-07-14T17:12:20.614Z,37.75
2023-07-14T17:17:44.484Z,37.77
2023-07-14T17:23:06.946Z,37.54
2023-07-14T17:28:29.969Z,37.67
2023-07-14T17:33:52.820Z,37.74
2023-07-14T17:39:23.147Z,38.16
2023-07-14T17:44:48.103Z,38.17
2023-07-14T17:50:10.336Z,37.73
2023-07-14T17:55:33.005Z,37.99
2023-07-14T18:00:55.847Z,37.58
2023-07-14T18:06:22.791Z,37.63
2023-07-14T18:11:49.328Z,37.47
2023-07-14T18:17:15.954Z,37.76
2023-07-14T18:22:37.865Z,37.88
2023-07-14T18:28:01.214Z,37.87
2023-07-14T18:33:27.515Z,37.87
2023-07-14T18:38:49.689Z,38.02
2023-07-14T18:44:17.960Z,38.33
2023-07-14T18:49:40.388Z,38.04
2023-07-14T18:55:02.322Z,37.89
2023-07-14T19:00:24.274Z,37.90
2023-07-14T19:05:46.639Z,38.49
2023-07-14T19:11:17.883Z,38.33
2023-07-14T19:16:40.476Z,38.18
2023-07-14T19:22:02.639Z,38.55
2023-07-14T19:27:24.771Z,38.71
2023-07-14T19:32:48.018Z,38.72
2023-07-14T19:38:13.562Z,38.83
2023-07-14T19:43:35.448Z,39.00
2023-07-14T19:48:57.692Z,39.12
2023-07-14T19:54:21.592Z,39.08
2023-07-14T19:59:43.632Z,39.23
2023-07-14T20:05:16.196Z,39.19
2023-07-14T20:10:39.479Z,39.51
2023-07-14T20:16:01.712Z,39.45
2023-07-14T20:21:30.349Z,39.29
2023-07-14T20:26:52.408Z,39.53
2023-07-14T20:32:15.451Z,39.38
2023-07-14T20:37:37.332Z,39.62
2023-07-14T20:43:00.508Z,39.41
2023-07-14T20:48:24.777Z,39.55
2023-07-14T20:53:47.265Z,39.54
2023-07-14T20:59:09.139Z,39.45
2023-07-14T21:04:31.602Z,39.45
2023-07-14T21:09:53.602Z,39.27
2023-07-14T21:15:17.497Z,39.63
2023-07-14T21:20:40.874Z,39.67
2023-07-14T21:26:16.050Z,39.59
2023-07-14T21:31:41.144Z,39.65
2023-07-14T21:37:02.982Z,39.34
2023-07-14T21:42:25.293Z,39.59
2023-07-14T21:47:48.193Z,39.28
2023-07-14T21:53:26.537Z,39.49
2023-07-14T21:58:49.202Z,39.63
2023-07-14T22:04:35.347Z,39.62
2023-07-14T22:09:57.407Z,39.67
2023-07-14T22:15:22.369Z,39.80
2023-07-14T22:20:46.408Z,39.97
2023-07-14T22:26:18.481Z,39.69
2023-07-14T22:31:41.310Z,39.75
2023-07-14T22:37:03.159Z,39.75
2023-07-14T22:42:25.377Z,39.91
2023-07-14T22:47:47.545Z,39.76
2023-07-14T22:53:16.720Z,39.93
2023-07-14T22:58:38.593Z,39.69
2023-07-14T23:04:01.018Z,39.96
2023-07-14T23:09:23.922Z,39.78
2023-07-14T23:14:48.507Z,39.97
2023-07-14T23:20:15.196Z,39.90
2023-07-14T23:25:37.362Z,39.99
2023-07-14T23:30:59.238Z,39.83
2023-07-14T23:36:22.669Z,39.83
2023-07-14T23:41:44.976Z,39.93
2023-07-14T23:47:07.074Z,40.00
2023-07-14T23:52:33.179Z,40.11
2023-07-14T23:57:58.678Z,40.24
